createdAt,value
2018-02-08T00:00:10.825Z,88.28
2018-02-08T00:01:10.981Z,87.80
2018-02-08T00:02:10.809Z,87.80
2018-02-08T00:03:10.465Z,87.90
2018-02-08T00:04:10.464Z,88.18
2018-02-08T00:05:10.350Z,88.75
2018-02-08T00:06:10.340Z,88.65
2018-02-08T00:07:11.262Z,88.28
2018-02-08T00:08:10.330Z,88.65
2018-02-08T00:09:10.333Z,88.37
2018-02-08T00:10:10.301Z,87.99
2018-02-08T00:11:10.310Z,88.18
2018-02-08T00:12:10.289Z,87.90
2018-02-08T00:13:10.278Z,88.28
2018-02-08T00:14:10.355Z,88.37
2018-02-08T00:15:10.332Z,88.56
2018-02-08T00:16:10.332Z,88.46
2018-02-08T00:17:10.265Z,88.65
2018-02-08T00:18:10.276Z,88.37
2018-02-08T00:19:10.309Z,88.37
2018-02-08T00:20:10.271Z,88.37
2018-02-08T00:21:10.302Z,88.56
2018-02-08T00:22:10.296Z,88.65
2018-02-08T00:23:10.246Z,88.65
2018-02-08T00:24:10.239Z,88.93
2018-02-08T00:25:10.258Z,89.12
2018-02-08T00:26:10.287Z,88.93
2018-02-08T00:27:10.293Z,89.69
2018-02-08T00:28:10.250Z,88.93
2018-02-08T00:29:10.261Z,88.65
2018-02-08T00:30:10.226Z,89.12
2018-02-08T00:31:10.247Z,89.12
2018-02-08T00:32:10.245Z,89.69
2018-02-08T00:33:10.193Z,89.78
2018-02-08T00:34:10.184Z,88.84
2018-02-08T00:35:10.184Z,88.93
2018-02-08T00:36:10.197Z,89.03
2018-02-08T00:37:10.196Z,89.22
2018-02-08T00:38:10.200Z,88.75
2018-02-08T00:39:10.212Z,88.93
2018-02-08T00:40:10.157Z,89.12
2018-02-08T00:41:10.207Z,88.37
2018-02-08T00:42:10.219Z,88.75
2018-02-08T00:43:10.165Z,88.93
2018-02-08T00:44:10.141Z,89.40
2018-02-08T00:45:10.167Z,89.03
2018-02-08T00:46:10.170Z,88.46
2018-02-08T00:47:10.136Z,89.40
2018-02-08T00:48:10.127Z,88.93
2018-02-08T00:49:10.171Z,89.22
2018-02-08T00:50:10.121Z,89.50
2018-02-08T00:51:10.107Z,89.97
2018-02-08T00:52:10.167Z,90.54
2018-02-08T00:53:10.134Z,90.45
2018-02-08T00:54:10.166Z,90.16
2018-02-08T00:55:10.170Z,90.16
2018-02-08T00:56:10.106Z,90.73
2018-02-08T00:57:10.151Z,90.64
2018-02-08T00:58:10.122Z,90.16
2018-02-08T00:59:10.137Z,89.97
2018-02-08T01:00:10.097Z,91.01
2018-02-08T01:01:10.977Z,90.45
2018-02-08T01:02:10.058Z,90.26
2018-02-08T01:03:10.066Z,90.45
2018-02-08T01:04:10.060Z,90.45
2018-02-08T01:05:10.071Z,89.22
2018-02-08T01:06:10.095Z,88.93
2018-02-08T01:07:10.039Z,88.93
2018-02-08T01:08:10.055Z,89.22
2018-02-08T01:09:10.029Z,89.88
2018-02-08T01:10:10.034Z,89.88
2018-02-08T01:11:10.094Z,90.07
2018-02-08T01:12:10.070Z,90.16
2018-02-08T01:13:10.039Z,89.50
2018-02-08T01:14:10.478Z,89.88
2018-02-08T01:15:10.067Z,89.97
2018-02-08T01:16:10.049Z,91.11
2018-02-08T01:17:10.008Z,91.11
2018-02-08T01:18:10.010Z,90.82
2018-02-08T01:19:10.039Z,91.01
2018-02-08T01:20:09.999Z,91.30
2018-02-08T01:21:09.976Z,92.05
2018-02-08T01:22:09.997Z,92.14
2018-02-08T01:23:09.994Z,92.24
2018-02-08T01:24:10.021Z,91.86
2018-02-08T01:25:10.006Z,92.33
2018-02-08T01:26:09.992Z,91.86
2018-02-08T01:27:09.978Z,91.96
2018-02-08T01:28:10.012Z,92.05
2018-02-08T01:29:09.940Z,91.96
2018-02-08T01:30:09.953Z,92.14
2018-02-08T01:31:09.999Z,92.33
2018-02-08T01:32:09.958Z,92.61
2018-02-08T01:33:09.977Z,92.61
2018-02-08T01:34:09.916Z,92.24
2018-02-08T01:35:10.005Z,92.61
2018-02-08T01:36:09.916Z,92.43
2018-02-08T01:37:09.909Z,92.33
2018-02-08T01:38:09.951Z,92.14
2018-02-08T01:39:09.910Z,92.61
2018-02-08T01:40:09.891Z,92.33
2018-02-08T01:41:09.913Z,92.80
2018-02-08T01:42:09.895Z,92.71
2018-02-08T01:43:09.887Z,92.43
2018-02-08T01:44:09.918Z,92.71
2018-02-08T01:45:09.861Z,92.61
2018-02-08T01:46:09.905Z,92.61
2018-02-08T01:47:09.885Z,92.33
2018-02-08T01:48:10.485Z,92.33
2018-02-08T01:49:09.866Z,92.90
2018-02-08T01:50:09.880Z,92.33
2018-02-08T01:51:09.871Z,92.24
2018-02-08T01:52:09.880Z,92.33
2018-02-08T01:53:09.864Z,92.90
2018-02-08T01:54:09.825Z,92.71
2018-02-08T01:55:09.897Z,92.66
2018-02-08T01:56:09.816Z,92.05
2018-02-08T01:57:09.811Z,92.47
2018-02-08T01:58:09.805Z,92.76
2018-02-08T01:59:09.852Z,92.61
2018-02-08T02:00:09.823Z,93.37
2018-02-08T02:01:09.925Z,92.76
2018-02-08T02:02:09.785Z,92.29
2018-02-08T02:03:09.796Z,92.47
2018-02-08T02:04:09.777Z,92.43
2018-02-08T02:05:09.774Z,92.99
2018-02-08T02:06:09.811Z,92.80
2018-02-08T02:07:09.814Z,92.33
2018-02-08T02:08:09.853Z,92.52
2018-02-08T02:09:09.778Z,91.86
2018-02-08T02:10:09.752Z,92.43
2018-02-08T02:11:09.755Z,92.80
2018-02-08T02:12:09.789Z,92.85
2018-02-08T02:13:09.764Z,92.47
2018-02-08T02:14:09.732Z,92.57
2018-02-08T02:15:09.715Z,92.57
2018-02-08T02:16:09.720Z,92.38
2018-02-08T02:17:09.720Z,93.04
2018-02-08T02:18:09.781Z,93.13
2018-02-08T02:19:09.722Z,93.23
2018-02-08T02:20:09.739Z,93.13
2018-02-08T02:21:09.700Z,92.95
2018-02-08T02:22:09.714Z,93.51
2018-02-08T02:23:09.691Z,93.51
2018-02-08T02:24:09.759Z,93.89
2018-02-08T02:25:09.723Z,93.04
2018-02-08T02:26:09.678Z,92.33
2018-02-08T02:27:09.690Z,92.57
2018-02-08T02:28:09.687Z,92.10
2018-02-08T02:29:09.663Z,92.00
2018-02-08T02:30:09.712Z,92.00
2018-02-08T02:31:09.712Z,92.05
2018-02-08T02:32:09.642Z,92.19
2018-02-08T02:33:09.693Z,92.19
2018-02-08T02:34:09.680Z,91.82
2018-02-08T02:35:09.654Z,92.33
2018-02-08T02:36:09.675Z,92.24
2018-02-08T02:37:09.638Z,92.33
2018-02-08T02:38:09.627Z,90.87
2018-02-08T02:39:09.616Z,91.53
2018-02-08T02:40:09.598Z,91.72
2018-02-08T02:41:09.616Z,92.19
2018-02-08T02:42:09.659Z,92.29
2018-02-08T02:43:09.610Z,92.57
2018-02-08T02:44:09.657Z,92.57
2018-02-08T02:45:09.643Z,92.47
2018-02-08T02:46:09.576Z,92.57
2018-02-08T02:47:09.636Z,92.47
2018-02-08T02:48:09.570Z,92.85
2018-02-08T02:49:09.561Z,92.19
2018-02-08T02:50:09.575Z,92.47
2018-02-08T02:51:09.577Z,93.13
2018-02-08T02:52:09.559Z,92.66
2018-02-08T02:53:09.549Z,92.76
2018-02-08T02:54:09.574Z,93.70
2018-02-08T02:55:09.562Z,93.80
2018-02-08T02:56:09.595Z,93.61
2018-02-08T02:57:09.541Z,93.80
2018-02-08T02:58:09.557Z,93.89
2018-02-08T02:59:09.562Z,94.18
2018-02-08T03:00:09.561Z,95.03
2018-02-08T03:01:09.554Z,94.46
2018-02-08T03:02:09.517Z,95.50
2018-02-08T03:03:09.507Z,95.97
2018-02-08T03:04:09.551Z,95.31
2018-02-08T03:05:09.494Z,95.31
2018-02-08T03:06:09.506Z,95.21
2018-02-08T03:07:09.499Z,95.59
2018-02-08T03:08:09.488Z,95.50
2018-02-08T03:09:09.474Z,96.06
2018-02-08T03:10:09.492Z,95.68
2018-02-08T03:11:09.513Z,95.59
2018-02-08T03:12:09.488Z,95.50
2018-02-08T03:13:09.488Z,95.68
2018-02-08T03:14:09.445Z,96.15
2018-02-08T03:15:09.472Z,96.44
2018-02-08T03:16:09.440Z,96.25
2018-02-08T03:17:09.504Z,95.97
2018-02-08T03:18:09.425Z,96.06
2018-02-08T03:19:09.458Z,95.87
2018-02-08T03:20:09.413Z,95.40
2018-02-08T03:21:09.426Z,94.84
2018-02-08T03:22:09.991Z,94.84
2018-02-08T03:23:09.422Z,94.93
2018-02-08T03:24:09.445Z,94.46
2018-02-08T03:25:09.403Z,93.61
2018-02-08T03:26:09.427Z,93.80
2018-02-08T03:27:09.381Z,93.89
2018-02-08T03:28:09.400Z,93.89
2018-02-08T03:29:09.396Z,94.27
2018-02-08T03:30:09.409Z,94.55
2018-02-08T03:31:09.440Z,93.89
2018-02-08T03:32:09.376Z,93.80
2018-02-08T03:33:09.408Z,94.55
2018-02-08T03:34:09.369Z,94.46
2018-02-08T03:35:09.375Z,94.08
2018-02-08T03:36:09.343Z,94.93
2018-02-08T03:37:09.346Z,94.93
2018-02-08T03:38:09.354Z,95.40
2018-02-08T03:39:09.384Z,95.03
2018-02-08T03:40:09.312Z,93.99
2018-02-08T03:41:09.315Z,94.36
2018-02-08T03:42:09.333Z,93.99
2018-02-08T03:43:09.355Z,93.89
2018-02-08T03:44:09.316Z,93.61
2018-02-08T03:45:09.300Z,93.13
2018-02-08T03:46:09.334Z,92.47
2018-02-08T03:47:09.281Z,92.47
2018-02-08T03:48:09.294Z,92.76
2018-02-08T03:49:09.316Z,92.29
2018-02-08T03:50:09.275Z,92.47
2018-02-08T03:51:09.292Z,92.57
2018-02-08T03:52:09.301Z,92.57
2018-02-08T03:53:09.273Z,92.85
2018-02-08T03:54:09.260Z,92.85
2018-02-08T03:55:09.244Z,93.13
2018-02-08T03:56:09.269Z,92.47
2018-02-08T03:57:09.301Z,92.57
2018-02-08T03:58:09.239Z,92.47
2018-02-08T03:59:09.257Z,92.57
2018-02-08T04:00:09.241Z,92.47
2018-02-08T04:01:09.259Z,92.47
2018-02-08T04:02:09.227Z,92.47
2018-02-08T04:03:09.249Z,92.57
2018-02-08T04:04:09.262Z,92.47
2018-02-08T04:05:09.222Z,92.29
2018-02-08T04:06:09.189Z,92.47
2018-02-08T04:07:09.230Z,92.66
2018-02-08T04:08:09.206Z,92.66
2018-02-08T04:09:09.215Z,93.80
2018-02-08T04:10:09.198Z,93.70
2018-02-08T04:11:09.163Z,93.70
2018-02-08T04:12:09.296Z,93.32
2018-02-08T04:13:09.187Z,92.76
2018-02-08T04:14:09.223Z,93.04
2018-02-08T04:15:09.247Z,93.04
2018-02-08T04:16:09.145Z,93.23
2018-02-08T04:17:09.139Z,93.42
2018-02-08T04:18:09.169Z,93.42
2018-02-08T04:19:09.138Z,93.61
2018-02-08T04:20:09.119Z,93.61
2018-02-08T04:21:09.112Z,93.51
2018-02-08T04:22:09.152Z,92.85
2018-02-08T04:23:09.137Z,92.95
2018-02-08T04:24:09.164Z,93.32
2018-02-08T04:25:09.161Z,93.70
2018-02-08T04:26:09.097Z,93.51
2018-02-08T04:27:09.117Z,93.80
2018-02-08T04:28:09.096Z,94.08
2018-02-08T04:29:09.087Z,93.80
2018-02-08T04:30:09.144Z,93.80
2018-02-08T04:31:09.097Z,94.36
2018-02-08T04:32:09.059Z,93.89
2018-02-08T04:33:09.123Z,93.51
2018-02-08T04:34:09.093Z,94.18
2018-02-08T04:35:09.056Z,94.84
2018-02-08T04:36:09.037Z,94.46
2018-02-08T04:37:09.108Z,95.03
2018-02-08T04:38:09.074Z,94.27
2018-02-08T04:39:09.066Z,94.18
2018-02-08T04:40:09.055Z,94.46
2018-02-08T04:41:09.985Z,94.08
2018-02-08T04:42:09.026Z,94.36
2018-02-08T04:43:09.067Z,94.18
2018-02-08T04:44:09.042Z,93.51
2018-02-08T04:45:09.026Z,93.80
2018-02-08T04:46:08.997Z,93.80
2018-02-08T04:47:09.059Z,93.61
2018-02-08T04:48:08.985Z,93.99
2018-02-08T04:49:09.047Z,93.99
2018-02-08T04:50:08.976Z,94.08
2018-02-08T04:51:09.009Z,93.70
2018-02-08T04:52:08.973Z,93.80
2018-02-08T04:53:08.984Z,93.70
2018-02-08T04:54:08.972Z,93.89
2018-02-08T04:55:09.000Z,93.70
2018-02-08T04:56:08.965Z,93.70
2018-02-08T04:57:08.944Z,93.42
2018-02-08T04:58:08.956Z,93.42
2018-02-08T04:59:08.979Z,93.70
2018-02-08T05:00:08.970Z,93.42
2018-02-08T05:01:08.917Z,92.95
2018-02-08T05:02:08.955Z,93.04
2018-02-08T05:03:08.906Z,93.89
2018-02-08T05:04:08.913Z,94.27
2018-02-08T05:05:08.982Z,93.70
2018-02-08T05:06:08.973Z,94.08
2018-02-08T05:07:08.913Z,93.70
2018-02-08T05:08:08.905Z,93.80
2018-02-08T05:09:08.887Z,93.61
2018-02-08T05:10:08.896Z,94.18
2018-02-08T05:11:08.909Z,94.27
2018-02-08T05:12:08.883Z,94.08
2018-02-08T05:13:08.885Z,94.46
2018-02-08T05:14:08.908Z,93.89
2018-02-08T05:15:08.989Z,93.80
2018-02-08T05:16:08.874Z,93.99
2018-02-08T05:17:08.885Z,93.80
2018-02-08T05:18:08.844Z,94.18
2018-02-08T05:19:08.893Z,94.36
2018-02-08T05:20:08.859Z,95.03
2018-02-08T05:21:08.813Z,95.31
2018-02-08T05:22:08.828Z,95.40
2018-02-08T05:23:08.842Z,95.87
2018-02-08T05:24:08.832Z,95.50
2018-02-08T05:25:08.818Z,95.97
2018-02-08T05:26:08.878Z,96.25
2018-02-08T05:27:08.838Z,96.53
2018-02-08T05:28:09.489Z,96.72
2018-02-08T05:29:08.853Z,96.81
2018-02-08T05:30:08.791Z,97.57
2018-02-08T05:31:08.769Z,98.42
2018-02-08T05:32:08.766Z,97.95
2018-02-08T05:33:08.835Z,98.23
2018-02-08T05:34:08.834Z,98.33
2018-02-08T05:35:08.748Z,97.95
2018-02-08T05:36:08.802Z,98.42
2018-02-08T05:37:08.799Z,97.48
2018-02-08T05:38:08.738Z,96.72
2018-02-08T05:39:08.783Z,96.25
2018-02-08T05:40:08.787Z,96.25
2018-02-08T05:41:08.797Z,96.44
2018-02-08T05:42:08.765Z,96.63
2018-02-08T05:43:08.710Z,97.19
2018-02-08T05:44:08.764Z,97.48
2018-02-08T05:45:08.701Z,97.38
2018-02-08T05:46:08.700Z,97.19
2018-02-08T05:47:08.681Z,97.76
2018-02-08T05:48:08.723Z,98.52
2018-02-08T05:49:08.725Z,98.52
2018-02-08T05:50:08.679Z,98.52
2018-02-08T05:51:08.670Z,99.37
2018-02-08T05:52:08.698Z,99.99
2018-02-08T05:53:08.714Z,99.99
2018-02-08T05:54:08.660Z,99.37
2018-02-08T05:55:08.693Z,99.08
2018-02-08T05:56:08.662Z,98.42
2018-02-08T05:57:08.661Z,98.42
2018-02-08T05:58:08.652Z,97.95
2018-02-08T05:59:08.621Z,99.08
2018-02-08T06:00:08.657Z,99.55
2018-02-08T06:01:08.621Z,99.99
2018-02-08T06:02:08.800Z,99.74
2018-02-08T06:03:08.632Z,99.99
2018-02-08T06:04:08.644Z,99.99
2018-02-08T06:05:08.643Z,99.46
2018-02-08T06:06:08.620Z,99.18
2018-02-08T06:07:08.626Z,99.37
2018-02-08T06:08:08.603Z,99.93
2018-02-08T06:09:08.626Z,99.99
2018-02-08T06:10:08.664Z,99.99
2018-02-08T06:11:08.566Z,99.84
2018-02-08T06:12:08.602Z,99.65
2018-02-08T06:13:08.574Z,99.55
2018-02-08T06:14:08.573Z,99.99
2018-02-08T06:15:08.545Z,99.37
2018-02-08T06:16:08.541Z,99.37
2018-02-08T06:17:08.585Z,99.74
2018-02-08T06:18:08.583Z,99.65
2018-02-08T06:19:08.518Z,99.99
2018-02-08T06:20:08.549Z,99.99
2018-02-08T06:21:08.530Z,99.99
2018-02-08T06:22:08.564Z,99.99
2018-02-08T06:23:08.534Z,99.84
2018-02-08T06:24:09.941Z,99.99
2018-02-08T06:25:08.509Z,99.99
2018-02-08T06:26:08.480Z,99.99
2018-02-08T06:27:08.537Z,99.93
2018-02-08T06:28:08.475Z,99.99
2018-02-08T06:29:08.520Z,99.65
2018-02-08T06:30:08.500Z,99.46
2018-02-08T06:31:09.485Z,98.99
2018-02-08T06:32:08.532Z,98.52
2018-02-08T06:33:08.524Z,98.61
2018-02-08T06:34:08.463Z,98.90
2018-02-08T06:35:08.484Z,99.27
2018-02-08T06:36:08.471Z,99.27
2018-02-08T06:37:08.442Z,99.93
2018-02-08T06:38:08.466Z,99.93
2018-02-08T06:39:08.436Z,99.55
2018-02-08T06:40:08.453Z,98.99
2018-02-08T06:41:08.437Z,98.90
2018-02-08T06:42:08.467Z,98.99
2018-02-08T06:43:08.398Z,98.80
2018-02-08T06:44:08.391Z,98.33
2018-02-08T06:45:08.402Z,98.52
2018-02-08T06:46:08.407Z,98.52
2018-02-08T06:47:08.412Z,98.61
2018-02-08T06:48:08.389Z,98.52
2018-02-08T06:49:08.408Z,98.71
2018-02-08T06:50:08.393Z,98.99
2018-02-08T06:51:08.366Z,99.18
2018-02-08T06:52:08.436Z,98.90
2018-02-08T06:53:08.352Z,99.27
2018-02-08T06:54:08.363Z,99.08
2018-02-08T06:55:08.381Z,98.80
2018-02-08T06:56:08.344Z,98.90
2018-02-08T06:57:08.340Z,98.71
2018-02-08T06:58:08.348Z,98.99
2018-02-08T06:59:08.356Z,98.99
2018-02-08T07:00:08.309Z,99.99
2018-02-08T07:01:08.368Z,99.99
2018-02-08T07:02:08.308Z,99.93
2018-02-08T07:03:08.289Z,99.99
2018-02-08T07:04:08.299Z,99.99
2018-02-08T07:05:08.368Z,99.99
2018-02-08T07:06:09.702Z,99.74
2018-02-08T07:07:08.343Z,99.55
2018-02-08T07:08:08.313Z,98.90
2018-02-08T07:09:08.437Z,98.52
2018-02-08T07:10:08.264Z,98.61
2018-02-08T07:11:08.259Z,98.99
2018-02-08T07:12:08.302Z,98.90
2018-02-08T07:13:08.288Z,98.90
2018-02-08T07:14:08.256Z,98.71
2018-02-08T07:15:08.270Z,98.90
2018-02-08T07:16:08.272Z,98.23
2018-02-08T07:17:09.263Z,97.85
2018-02-08T07:18:08.516Z,97.67
2018-02-08T07:19:08.317Z,97.29
2018-02-08T07:20:08.200Z,97.19
2018-02-08T07:21:08.250Z,97.19
2018-02-08T07:22:08.301Z,97.19
2018-02-08T07:23:08.213Z,97.29
2018-02-08T07:24:08.215Z,97.95
2018-02-08T07:25:08.249Z,97.48
2018-02-08T07:26:08.196Z,97.48
2018-02-08T07:27:08.232Z,97.76
2018-02-08T07:28:08.173Z,97.67
2018-02-08T07:29:08.205Z,98.33
2018-02-08T07:30:08.230Z,98.71
2018-02-08T07:31:08.239Z,98.33
2018-02-08T07:32:08.177Z,97.76
2018-02-08T07:33:08.192Z,97.10
2018-02-08T07:34:08.138Z,96.63
2018-02-08T07:35:08.128Z,96.91
2018-02-08T07:36:08.128Z,96.44
2018-02-08T07:37:08.119Z,96.39
2018-02-08T07:38:08.116Z,96.39
2018-02-08T07:39:08.221Z,96.01
2018-02-08T07:40:08.163Z,96.11
2018-02-08T07:41:08.144Z,95.54
2018-02-08T07:42:08.089Z,95.73
2018-02-08T07:43:09.080Z,95.73
2018-02-08T07:44:08.084Z,96.01
2018-02-08T07:45:08.086Z,96.11
2018-02-08T07:46:08.134Z,95.54
2018-02-08T07:47:08.119Z,95.54
2018-02-08T07:48:08.104Z,95.45
2018-02-08T07:49:08.998Z,95.92
2018-02-08T07:50:08.066Z,95.45
2018-02-08T07:51:08.063Z,95.07
2018-02-08T07:52:08.113Z,93.84
2018-02-08T07:53:08.152Z,92.38
2018-02-08T07:54:08.054Z,92.00
2018-02-08T07:55:08.071Z,91.15
2018-02-08T07:56:08.062Z,90.30
2018-02-08T07:57:08.079Z,89.73
2018-02-08T07:58:08.076Z,88.89
2018-02-08T07:59:08.086Z,88.65
2018-02-08T08:00:08.063Z,87.70
2018-02-08T08:01:08.077Z,86.10
2018-02-08T08:02:08.091Z,85.62
2018-02-08T08:03:08.494Z,83.97
2018-02-08T08:04:08.001Z,82.54
2018-02-08T08:05:08.011Z,81.22
2018-02-08T08:06:08.022Z,80.51
2018-02-08T08:07:08.053Z,79.41
2018-02-08T08:08:07.993Z,76.86
2018-02-08T08:09:07.985Z,74.90
2018-02-08T08:10:08.038Z,73.39
2018-02-08T08:11:07.970Z,72.92
2018-02-08T08:12:08.051Z,71.81
2018-02-08T08:13:08.030Z,71.02
2018-02-08T08:14:08.082Z,70.83
2018-02-08T08:15:07.977Z,71.12
2018-02-08T08:16:08.070Z,72.31
2018-02-08T08:17:08.106Z,73.45
2018-02-08T08:18:08.270Z,73.35
2018-02-08T08:19:08.112Z,75.49
2018-02-08T08:20:08.195Z,75.40
2018-02-08T08:21:16.284Z,76.53
2018-02-08T08:22:08.041Z,75.34
2018-02-08T08:23:08.004Z,74.43
2018-02-08T08:24:08.057Z,71.44
2018-02-08T08:25:08.022Z,69.54
2018-02-08T08:26:08.077Z,68.31
2018-02-08T08:27:08.284Z,68.21
2018-02-08T08:28:09.378Z,68.08
2018-02-08T08:29:08.184Z,69.79
2018-02-08T08:31:09.850Z,69.70
2018-02-08T08:32:08.312Z,70.07
2018-02-08T08:33:08.348Z,69.54
2018-02-08T08:34:07.990Z,68.31
2018-02-08T08:35:08.098Z,67.68
2018-02-08T08:36:09.123Z,66.93
2018-02-08T08:37:08.082Z,65.72
2018-02-08T08:38:08.169Z,65.16
2018-02-08T08:39:16.061Z,64.87
2018-02-08T08:40:09.460Z,63.64
2018-02-08T08:41:16.768Z,64.36
2018-02-08T08:42:13.485Z,65.72
2018-02-08T08:43:18.900Z,68.24
2018-02-08T08:44:15.829Z,72.03
2018-02-08T08:45:11.398Z,73.92
2018-02-08T08:46:09.835Z,74.83
2018-02-08T08:47:07.977Z,74.74
2018-02-08T08:48:08.015Z,74.77
2018-02-08T08:49:09.411Z,74.93
2018-02-08T08:50:08.443Z,75.96
2018-02-08T08:51:07.936Z,76.15
2018-02-08T08:52:07.956Z,74.96
2018-02-08T08:53:07.985Z,74.77
2018-02-08T08:54:07.924Z,74.40
2018-02-08T08:55:07.933Z,73.88
2018-02-08T08:56:08.071Z,75.49
2018-02-08T08:57:07.979Z,75.40
2018-02-08T08:58:08.200Z,75.49
2018-02-08T08:59:08.243Z,75.68
2018-02-08T09:00:08.053Z,75.78
2018-02-08T09:01:07.953Z,76.12
2018-02-08T09:02:08.277Z,76.25
2018-02-08T09:03:08.742Z,75.31
2018-02-08T09:04:09.020Z,75.68
2018-02-08T09:05:08.635Z,76.25
2018-02-08T09:06:12.028Z,75.87
2018-02-08T09:07:08.213Z,75.96
2018-02-08T09:08:08.864Z,75.59
2018-02-08T09:09:09.235Z,75.68
2018-02-08T09:10:08.463Z,75.55
2018-02-08T09:11:09.072Z,76.50
2018-02-08T09:12:08.186Z,77.72
2018-02-08T09:13:08.022Z,78.67
2018-02-08T09:14:08.014Z,78.42
2018-02-08T09:15:08.006Z,76.57
2018-02-08T09:16:07.947Z,73.73
2018-02-08T09:17:07.980Z,72.06
2018-02-08T09:18:07.930Z,71.12
2018-02-08T09:19:08.015Z,71.46
2018-02-08T09:20:07.963Z,72.50
2018-02-08T09:21:07.996Z,73.88
2018-02-08T09:22:07.915Z,73.73
2018-02-08T09:23:08.009Z,72.50
2018-02-08T09:24:07.952Z,73.07
2018-02-08T09:25:08.132Z,73.83
2018-02-08T09:26:07.936Z,74.30
2018-02-08T09:27:07.932Z,75.43
2018-02-08T09:28:07.928Z,74.68
2018-02-08T09:29:07.960Z,74.30
2018-02-08T09:30:08.774Z,73.83
2018-02-08T09:31:07.951Z,73.35
2018-02-08T09:32:07.920Z,73.77
2018-02-08T09:33:07.891Z,73.64
2018-02-08T09:34:07.955Z,73.45
2018-02-08T09:35:08.510Z,72.63
2018-02-08T09:36:07.898Z,72.48
2018-02-08T09:37:07.884Z,70.90
2018-02-08T09:38:07.932Z,67.94
2018-02-08T09:39:07.891Z,64.33
2018-02-08T09:40:07.918Z,61.26
2018-02-08T09:41:07.902Z,58.80
2018-02-08T09:42:07.918Z,58.83
2018-02-08T09:43:07.965Z,60.95
2018-02-08T09:44:07.917Z,63.60
2018-02-08T09:45:07.875Z,65.66
2018-02-08T09:46:07.941Z,67.71
2018-02-08T09:47:07.890Z,68.59
2018-02-08T09:48:08.604Z,67.52
2018-02-08T09:49:07.903Z,64.90
2018-02-08T09:50:07.889Z,61.80
2018-02-08T09:51:07.936Z,59.81
2018-02-08T09:52:07.898Z,58.67
2018-02-08T09:53:07.912Z,58.20
2018-02-08T09:54:07.887Z,58.22
2018-02-08T09:55:07.901Z,57.65
2018-02-08T09:56:07.934Z,57.46
2018-02-08T09:57:08.052Z,58.41
2018-02-08T09:58:08.144Z,58.22
2018-02-08T09:59:07.915Z,56.80
2018-02-08T10:00:07.890Z,56.61
2018-02-08T10:01:07.941Z,56.04
2018-02-08T10:02:08.597Z,56.10
2018-02-08T10:03:07.948Z,56.68
2018-02-08T10:04:07.916Z,57.50
2018-02-08T10:05:07.931Z,58.20
2018-02-08T10:06:08.080Z,57.62
2018-02-08T10:07:07.917Z,57.79
2018-02-08T10:08:07.917Z,58.26
2018-02-08T10:09:08.003Z,59.30
2018-02-08T10:10:07.953Z,60.00
2018-02-08T10:11:08.024Z,62.82
2018-02-08T10:12:07.986Z,64.71
2018-02-08T10:13:07.962Z,66.47
2018-02-08T10:14:07.935Z,67.80
2018-02-08T10:15:07.941Z,69.76
2018-02-08T10:16:07.992Z,71.17
2018-02-08T10:17:07.942Z,71.74
2018-02-08T10:18:07.991Z,71.65
2018-02-08T10:19:08.014Z,71.93
2018-02-08T10:20:08.121Z,72.22
2018-02-08T10:21:07.996Z,71.69
2018-02-08T10:22:07.954Z,71.69
2018-02-08T10:23:07.958Z,71.40
2018-02-08T10:24:08.064Z,71.78
2018-02-08T10:25:07.990Z,71.02
2018-02-08T10:26:07.957Z,70.17
2018-02-08T10:27:07.943Z,69.54
2018-02-08T10:28:07.972Z,67.68
2018-02-08T10:29:08.525Z,65.44
2018-02-08T10:30:07.976Z,63.82
2018-02-08T10:31:08.003Z,62.28
2018-02-08T10:32:07.951Z,62.50
2018-02-08T10:33:08.000Z,61.93
2018-02-08T10:34:08.003Z,60.60
2018-02-08T10:35:07.999Z,59.21
2018-02-08T10:36:08.031Z,58.29
2018-02-08T10:37:08.535Z,57.69
2018-02-08T10:38:07.968Z,57.59
2018-02-08T10:39:08.025Z,59.08
2018-02-08T10:40:08.027Z,60.50
2018-02-08T10:41:08.538Z,61.20
2018-02-08T10:42:07.966Z,59.78
2018-02-08T10:43:08.044Z,59.02
2018-02-08T10:44:07.970Z,58.26
2018-02-08T10:45:08.002Z,58.07
2018-02-08T10:46:08.005Z,57.59
2018-02-08T10:47:08.532Z,57.24
2018-02-08T10:48:08.017Z,55.66
2018-02-08T10:49:07.985Z,54.07
2018-02-08T10:50:08.087Z,52.84
2018-02-08T10:51:07.982Z,53.47
2018-02-08T10:52:08.006Z,54.07
2018-02-08T10:53:08.305Z,53.34
2018-02-08T10:54:08.050Z,51.62
2018-02-08T10:55:08.000Z,50.23
2018-02-08T10:56:08.027Z,49.46
2018-02-08T10:57:08.055Z,49.20
2018-02-08T10:58:08.042Z,48.51
2018-02-08T10:59:08.093Z,48.80
2018-02-08T11:00:08.186Z,48.16
2018-02-08T11:01:08.060Z,47.20
2018-02-08T11:02:08.041Z,46.84
2018-02-08T11:03:08.061Z,45.70
2018-02-08T11:04:08.064Z,45.68
2018-02-08T11:05:08.039Z,46.89
2018-02-08T11:06:08.094Z,48.13
2018-02-08T11:07:08.137Z,47.97
2018-02-08T11:08:08.130Z,47.47
2018-02-08T11:09:08.114Z,46.80
2018-02-08T11:10:08.107Z,47.37
2018-02-08T11:11:09.542Z,47.94
2018-02-08T11:12:14.734Z,48.06
2018-02-08T11:13:10.302Z,47.28
2018-02-08T11:14:09.744Z,47.28
2018-02-08T11:15:09.216Z,47.37
2018-02-08T11:16:26.957Z,46.80
2018-02-08T11:17:09.420Z,47.09
2018-02-08T11:18:09.312Z,47.47
2018-02-08T11:19:08.611Z,46.89
2018-02-08T11:20:12.887Z,46.80
2018-02-08T11:21:08.106Z,46.70
2018-02-08T11:22:08.156Z,46.59
2018-02-08T11:23:08.155Z,47.18
2018-02-08T11:24:08.232Z,47.34
2018-02-08T11:25:08.121Z,47.82
2018-02-08T11:26:08.130Z,47.56
2018-02-08T11:27:08.204Z,46.63
2018-02-08T11:28:08.230Z,45.97
2018-02-08T11:29:08.397Z,45.30
2018-02-08T11:30:08.135Z,45.01
2018-02-08T11:31:08.190Z,45.37
2018-02-08T11:32:08.156Z,45.83
2018-02-08T11:33:08.209Z,47.99
2018-02-08T11:34:08.222Z,49.15
2018-02-08T11:35:08.284Z,48.99
2018-02-08T11:36:08.203Z,47.75
2018-02-08T11:37:08.234Z,47.33
2018-02-08T11:38:08.213Z,47.71
2018-02-08T11:39:08.195Z,48.82
2018-02-08T11:40:08.195Z,49.68
2018-02-08T11:41:08.243Z,51.29
2018-02-08T11:42:08.222Z,52.05
2018-02-08T11:43:08.285Z,51.22
2018-02-08T11:44:08.256Z,50.20
2018-02-08T11:45:08.264Z,49.32
2018-02-08T11:46:08.259Z,49.04
2018-02-08T11:47:08.269Z,49.13
2018-02-08T11:48:08.260Z,50.15
2018-02-08T11:49:08.268Z,50.89
2018-02-08T11:50:08.275Z,51.83
2018-02-08T11:51:08.327Z,53.66
2018-02-08T11:52:08.292Z,52.93
2018-02-08T11:53:08.261Z,52.14
2018-02-08T11:54:08.301Z,51.83
2018-02-08T11:55:08.318Z,52.02
2018-02-08T11:56:08.354Z,52.33
2018-02-08T11:57:08.365Z,51.12
2018-02-08T11:58:08.309Z,50.48
2018-02-08T11:59:08.444Z,49.06
2018-02-08T12:00:08.317Z,46.88
2018-02-08T12:01:08.344Z,46.59
2018-02-08T12:02:08.362Z,45.83
2018-02-08T12:03:08.344Z,46.88
2018-02-08T12:04:08.413Z,47.06
2018-02-08T12:05:08.356Z,46.78
2018-02-08T12:06:08.364Z,47.23
2018-02-08T12:07:08.349Z,48.18
2018-02-08T12:08:08.346Z,48.56
2018-02-08T12:09:08.434Z,49.13
2018-02-08T12:10:08.356Z,49.04
2018-02-08T12:11:08.361Z,49.13
2018-02-08T12:12:08.423Z,49.29
2018-02-08T12:13:08.417Z,49.87
2018-02-08T12:14:08.405Z,49.41
2018-02-08T12:15:08.397Z,48.75
2018-02-08T12:16:08.428Z,47.75
2018-02-08T12:17:08.401Z,49.18
2018-02-08T12:18:08.421Z,50.12
2018-02-08T12:19:09.073Z,50.60
2018-02-08T12:20:08.423Z,50.76
2018-02-08T12:21:08.441Z,52.45
2018-02-08T12:22:08.484Z,53.46
2018-02-08T12:23:08.416Z,55.83
2018-02-08T12:24:08.490Z,56.59
2018-02-08T12:25:08.467Z,57.92
2018-02-08T12:26:08.474Z,58.20
2018-02-08T12:27:08.437Z,58.29
2018-02-08T12:28:08.452Z,58.11
2018-02-08T12:29:08.464Z,59.05
2018-02-08T12:30:08.442Z,59.03
2018-02-08T12:31:09.005Z,58.84
2018-02-08T12:32:09.077Z,60.25
2018-02-08T12:33:08.527Z,60.35
2018-02-08T12:34:08.452Z,60.44
2018-02-08T12:35:08.500Z,60.44
2018-02-08T12:36:08.588Z,61.40
2018-02-08T12:37:08.494Z,61.58
2018-02-08T12:38:08.481Z,61.96
2018-02-08T12:39:08.496Z,62.43
2018-02-08T12:40:08.465Z,61.96
2018-02-08T12:41:08.471Z,61.96
2018-02-08T12:42:08.544Z,61.87
2018-02-08T12:43:08.475Z,61.96
2018-02-08T12:44:08.474Z,61.96
2018-02-08T12:45:09.085Z,62.62
2018-02-08T12:46:08.474Z,62.53
2018-02-08T12:47:08.500Z,62.43
2018-02-08T12:48:09.082Z,62.15
2018-02-08T12:49:08.536Z,62.05
2018-02-08T12:50:08.551Z,62.05
2018-02-08T12:51:08.515Z,61.02
2018-02-08T12:52:08.534Z,61.40
2018-02-08T12:53:08.511Z,61.87